Detroit, Michigan
Traffic Map
Current Weather Conditions
Detroit, Michigan
Few Clouds
Few Clouds
66°
Feels Like: 66°
Wind Chill: 66° Ceiling: Unl
Heat Index: 66° Visibility: 12mi
Dew Point: 61° Wind: 17mph
Humidity: 83% Direction: 280° (W)
Pressure: 29.63in Gusts: 26mph
Raw Report DataCYQG 211200Z 28015G23KT 12SM FEW015 19/16 A2963 RMK CU2 SLP032
Traffic Incident Summary
Active as of:
Severity:
Category:
InformationThere was an issue retrieving the traffic information for this location. Please try a different location or try again shortly.
Advertisements
Track Severe Weather on mobile